sensor_id;sensor_type;location;lat;lon;timestamp;temperature;humidity
31639;DHT22;18248;51.522;7.020;2022-09-14T00:02:09;20.10;99.90
31639;DHT22;18248;51.522;7.020;2022-09-14T00:05:08;20.00;99.90
31639;DHT22;18248;51.522;7.020;2022-09-14T00:08:07;19.90;99.90
31639;DHT22;18248;51.522;7.020;2022-09-14T00:11:08;19.90;99.90
31639;DHT22;18248;51.522;7.020;2022-09-14T00:14:07;19.90;99.90
31639;DHT22;18248;51.522;7.020;2022-09-14T00:17:05;19.90;99.90
31639;DHT22;18248;51.522;7.020;2022-09-14T00:20:04;19.90;99.90
31639;DHT22;18248;51.522;7.020;2022-09-14T00:23:04;19.90;99.90
31639;DHT22;18248;51.522;7.020;2022-09-14T00:26:05;19.90;99.90
31639;DHT22;18248;51.522;7.020;2022-09-14T00:29:05;19.90;99.90
31639;DHT22;18248;51.522;7.020;2022-09-14T00:32:04;19.90;99.90
31639;DHT22;18248;51.522;7.020;2022-09-14T00:35:03;19.90;99.90
31639;DHT22;18248;51.522;7.020;2022-09-14T00:38:02;19.90;99.90
31639;DHT22;18248;51.522;7.020;2022-09-14T00:41:01;19.90;99.90
31639;DHT22;18248;51.522;7.020;2022-09-14T00:44:03;19.80;99.90
31639;DHT22;18248;51.522;7.020;2022-09-14T00:47:01;19.80;99.90
31639;DHT22;18248;51.522;7.020;2022-09-14T00:50:01;19.70;99.90
31639;DHT22;18248;51.522;7.020;2022-09-14T00:53:00;19.70;99.90
31639;DHT22;18248;51.522;7.020;2022-09-14T00:55:59;19.70;99.90
31639;DHT22;18248;51.522;7.020;2022-09-14T00:58:58;19.70;99.90
31639;DHT22;18248;51.522;7.020;2022-09-14T01:01:58;19.70;99.90
31639;DHT22;18248;51.522;7.020;2022-09-14T01:04:57;19.70;99.90
31639;DHT22;18248;51.522;7.020;2022-09-14T01:08:01;19.70;99.90
31639;DHT22;18248;51.522;7.020;2022-09-14T01:11:44;19.70;99.90
31639;DHT22;18248;51.522;7.020;2022-09-14T01:15:10;19.60;99.90
31639;DHT22;18248;51.522;7.020;2022-09-14T01:18:21;19.50;99.90
31639;DHT22;18248;51.522;7.020;2022-09-14T01:21:32;19.40;99.90
31639;DHT22;18248;51.522;7.020;2022-09-14T01:27:37;19.40;99.90
31639;DHT22;18248;51.522;7.020;2022-09-14T01:30:40;19.30;99.90
31639;DHT22;18248;51.522;7.020;2022-09-14T01:33:54;19.30;99.90
31639;DHT22;18248;51.522;7.020;2022-09-14T01:37:03;19.20;99.90
31639;DHT22;18248;51.522;7.020;2022-09-14T01:40:15;19.10;99.90
31639;DHT22;18248;51.522;7.020;2022-09-14T01:43:25;19.10;99.90
31639;DHT22;18248;51.522;7.020;2022-09-14T01:46:28;19.10;99.90
31639;DHT22;18248;51.522;7.020;2022-09-14T01:49:34;19.00;99.90
31639;DHT22;18248;51.522;7.020;2022-09-14T01:52:49;18.90;99.90
31639;DHT22;18248;51.522;7.020;2022-09-14T01:56:03;18.90;99.90
31639;DHT22;18248;51.522;7.020;2022-09-14T01:59:36;18.90;99.90
31639;DHT22;18248;51.522;7.020;2022-09-14T02:02:32;18.90;99.90
31639;DHT22;18248;51.522;7.020;2022-09-14T02:05:41;18.80;99.90
31639;DHT22;18248;51.522;7.020;2022-09-14T02:08:42;18.80;99.90
31639;DHT22;18248;51.522;7.020;2022-09-14T02:11:41;18.80;99.90
31639;DHT22;18248;51.522;7.020;2022-09-14T02:14:40;18.80;99.90
31639;DHT22;18248;51.522;7.020;2022-09-14T02:17:40;18.80;99.90
31639;DHT22;18248;51.522;7.020;2022-09-14T02:20:51;18.80;99.90
31639;DHT22;18248;51.522;7.020;2022-09-14T02:23:51;18.90;99.90
31639;DHT22;18248;51.522;7.020;2022-09-14T02:26:52;18.80;99.90
31639;DHT22;18248;51.522;7.020;2022-09-14T02:29:53;18.80;99.90
31639;DHT22;18248;51.522;7.020;2022-09-14T02:33:22;18.80;99.90
31639;DHT22;18248;51.522;7.020;2022-09-14T02:36:30;18.80;99.90
31639;DHT22;18248;51.522;7.020;2022-09-14T02:43:31;18.80;99.90
31639;DHT22;18248;51.522;7.020;2022-09-14T02:50:07;18.80;99.90
31639;DHT22;18248;51.522;7.020;2022-09-14T02:56:13;18.80;99.90
31639;DHT22;18248;51.522;7.020;2022-09-14T02:59:12;18.80;99.90
31639;DHT22;18248;51.522;7.020;2022-09-14T03:02:11;18.80;99.90
31639;DHT22;18248;51.522;7.020;2022-09-14T03:05:09;18.80;99.90
31639;DHT22;18248;51.522;7.020;2022-09-14T03:08:08;18.80;99.90
31639;DHT22;18248;51.522;7.020;2022-09-14T03:11:10;18.80;99.90
31639;DHT22;18248;51.522;7.020;2022-09-14T03:14:10;18.80;99.90
31639;DHT22;18248;51.522;7.020;2022-09-14T03:17:08;18.80;99.90
31639;DHT22;18248;51.522;7.020;2022-09-14T03:20:07;18.70;99.90
31639;DHT22;18248;51.522;7.020;2022-09-14T03:23:06;18.70;99.90
31639;DHT22;18248;51.522;7.020;2022-09-14T03:26:18;18.70;99.90
31639;DHT22;18248;51.522;7.020;2022-09-14T03:29:17;18.60;99.90
31639;DHT22;18248;51.522;7.020;2022-09-14T03:32:17;18.60;99.90
31639;DHT22;18248;51.522;7.020;2022-09-14T03:35:17;18.60;99.90
31639;DHT22;18248;51.522;7.020;2022-09-14T03:38:16;18.60;99.90
31639;DHT22;18248;51.522;7.020;2022-09-14T03:41:15;18.60;99.90
31639;DHT22;18248;51.522;7.020;2022-09-14T03:44:13;18.50;99.90
31639;DHT22;18248;51.522;7.020;2022-09-14T03:47:12;18.50;99.90
31639;DHT22;18248;51.522;7.020;2022-09-14T03:50:11;18.50;99.90
31639;DHT22;18248;51.522;7.020;2022-09-14T03:53:10;18.50;99.90
31639;DHT22;18248;51.522;7.020;2022-09-14T03:56:11;18.50;99.90
31639;DHT22;18248;51.522;7.020;2022-09-14T03:59:10;18.50;99.90
31639;DHT22;18248;51.522;7.020;2022-09-14T04:02:10;18.50;99.90
31639;DHT22;18248;51.522;7.020;2022-09-14T04:05:09;18.50;99.90
31639;DHT22;18248;51.522;7.020;2022-09-14T04:08:07;18.50;99.90
31639;DHT22;18248;51.522;7.020;2022-09-14T04:11:08;18.40;99.90
31639;DHT22;18248;51.522;7.020;2022-09-14T04:14:07;18.40;99.90
31639;DHT22;18248;51.522;7.020;2022-09-14T04:17:06;18.40;99.90
31639;DHT22;18248;51.522;7.020;2022-09-14T04:20:06;18.40;99.90
31639;DHT22;18248;51.522;7.020;2022-09-14T04:23:04;18.40;99.90
31639;DHT22;18248;51.522;7.020;2022-09-14T04:26:13;18.40;99.90
31639;DHT22;18248;51.522;7.020;2022-09-14T04:29:14;18.40;99.90
31639;DHT22;18248;51.522;7.020;2022-09-14T04:32:13;18.40;99.90
31639;DHT22;18248;51.522;7.020;2022-09-14T04:35:11;18.30;99.90
31639;DHT22;18248;51.522;7.020;2022-09-14T04:38:10;18.30;99.90
31639;DHT22;18248;51.522;7.020;2022-09-14T04:41:15;18.20;99.90
31639;DHT22;18248;51.522;7.020;2022-09-14T04:44:15;18.30;99.90
31639;DHT22;18248;51.522;7.020;2022-09-14T04:47:14;18.30;99.90
31639;DHT22;18248;51.522;7.020;2022-09-14T04:50:12;18.30;99.90
31639;DHT22;18248;51.522;7.020;2022-09-14T04:53:11;18.30;99.90
31639;DHT22;18248;51.522;7.020;2022-09-14T04:56:11;18.30;99.90
31639;DHT22;18248;51.522;7.020;2022-09-14T04:59:10;18.20;99.90
31639;DHT22;18248;51.522;7.020;2022-09-14T05:02:09;18.20;99.90
31639;DHT22;18248;51.522;7.020;2022-09-14T05:05:08;18.20;99.90
31639;DHT22;18248;51.522;7.020;2022-09-14T05:08:06;18.20;99.90
31639;DHT22;18248;51.522;7.020;2022-09-14T05:11:06;18.10;99.90
31639;DHT22;18248;51.522;7.020;2022-09-14T05:14:05;18.10;99.90
31639;DHT22;18248;51.522;7.020;2022-09-14T05:17:05;18.10;99.90
31639;DHT22;18248;51.522;7.020;2022-09-14T05:20:04;18.10;99.90
31639;DHT22;18248;51.522;7.020;2022-09-14T05:23:03;18.10;99.90
31639;DHT22;18248;51.522;7.020;2022-09-14T05:26:03;18.00;99.90
31639;DHT22;18248;51.522;7.020;2022-09-14T05:29:01;17.90;99.90
31639;DHT22;18248;51.522;7.020;2022-09-14T05:32:00;17.90;99.90
31639;DHT22;18248;51.522;7.020;2022-09-14T05:34:59;17.90;99.90
31639;DHT22;18248;51.522;7.020;2022-09-14T05:37:59;17.90;99.90
31639;DHT22;18248;51.522;7.020;2022-09-14T05:40:57;17.90;99.90
31639;DHT22;18248;51.522;7.020;2022-09-14T05:43:58;17.90;99.90
31639;DHT22;18248;51.522;7.020;2022-09-14T05:46:57;17.80;99.90
31639;DHT22;18248;51.522;7.020;2022-09-14T05:49:56;17.80;99.90
31639;DHT22;18248;51.522;7.020;2022-09-14T05:52:54;17.80;99.90
31639;DHT22;18248;51.522;7.020;2022-09-14T05:56:11;17.80;99.90
31639;DHT22;18248;51.522;7.020;2022-09-14T05:59:09;17.80;99.90
31639;DHT22;18248;51.522;7.020;2022-09-14T06:02:09;17.70;99.90
31639;DHT22;18248;51.522;7.020;2022-09-14T06:05:08;17.60;99.90
31639;DHT22;18248;51.522;7.020;2022-09-14T06:08:06;17.70;99.90
31639;DHT22;18248;51.522;7.020;2022-09-14T06:11:13;17.60;99.90
31639;DHT22;18248;51.522;7.020;2022-09-14T06:14:14;17.60;99.90
31639;DHT22;18248;51.522;7.020;2022-09-14T06:17:17;17.60;99.90
31639;DHT22;18248;51.522;7.020;2022-09-14T06:20:15;17.60;99.90
31639;DHT22;18248;51.522;7.020;2022-09-14T06:23:15;17.50;99.90
31639;DHT22;18248;51.522;7.020;2022-09-14T06:26:14;17.50;99.90
31639;DHT22;18248;51.522;7.020;2022-09-14T06:29:13;17.40;99.90
31639;DHT22;18248;51.522;7.020;2022-09-14T06:32:12;17.40;99.90
31639;DHT22;18248;51.522;7.020;2022-09-14T06:35:10;17.40;99.90
31639;DHT22;18248;51.522;7.020;2022-09-14T06:38:09;17.30;99.90
31639;DHT22;18248;51.522;7.020;2022-09-14T06:41:10;17.30;99.90
31639;DHT22;18248;51.522;7.020;2022-09-14T06:44:10;17.30;99.90
31639;DHT22;18248;51.522;7.020;2022-09-14T06:47:09;17.30;99.90
31639;DHT22;18248;51.522;7.020;2022-09-14T06:50:08;17.20;99.90
31639;DHT22;18248;51.522;7.020;2022-09-14T06:53:06;17.20;99.90
31639;DHT22;18248;51.522;7.020;2022-09-14T06:56:05;17.20;99.90
31639;DHT22;18248;51.522;7.020;2022-09-14T06:59:06;17.20;99.90
31639;DHT22;18248;51.522;7.020;2022-09-14T07:02:08;17.20;99.90
31639;DHT22;18248;51.522;7.020;2022-09-14T07:05:07;17.20;99.90
31639;DHT22;18248;51.522;7.020;2022-09-14T07:08:06;17.20;99.90
31639;DHT22;18248;51.522;7.020;2022-09-14T07:11:06;17.10;99.90
31639;DHT22;18248;51.522;7.020;2022-09-14T07:14:05;17.10;99.90
31639;DHT22;18248;51.522;7.020;2022-09-14T07:17:04;17.00;99.90
31639;DHT22;18248;51.522;7.020;2022-09-14T07:20:04;17.10;99.90
31639;DHT22;18248;51.522;7.020;2022-09-14T07:23:04;17.10;99.90
31639;DHT22;18248;51.522;7.020;2022-09-14T07:26:05;17.10;99.90
31639;DHT22;18248;51.522;7.020;2022-09-14T07:29:06;17.10;99.90
31639;DHT22;18248;51.522;7.020;2022-09-14T07:32:05;17.10;99.90
31639;DHT22;18248;51.522;7.020;2022-09-14T07:35:04;17.10;99.90
31639;DHT22;18248;51.522;7.020;2022-09-14T07:38:02;17.10;99.90
31639;DHT22;18248;51.522;7.020;2022-09-14T07:41:01;17.00;99.90
31639;DHT22;18248;51.522;7.020;2022-09-14T07:44:03;17.00;99.90
31639;DHT22;18248;51.522;7.020;2022-09-14T07:47:02;17.00;99.90
31639;DHT22;18248;51.522;7.020;2022-09-14T07:50:01;17.00;99.90
31639;DHT22;18248;51.522;7.020;2022-09-14T07:52:59;17.00;99.90
31639;DHT22;18248;51.522;7.020;2022-09-14T07:55:59;17.00;99.90
31639;DHT22;18248;51.522;7.020;2022-09-14T07:58:59;17.00;99.90
31639;DHT22;18248;51.522;7.020;2022-09-14T08:01:58;16.90;99.90
31639;DHT22;18248;51.522;7.020;2022-09-14T08:04:56;16.80;99.90
31639;DHT22;18248;51.522;7.020;2022-09-14T08:07:56;16.90;99.90
31639;DHT22;18248;51.522;7.020;2022-09-14T08:11:01;16.90;99.90
31639;DHT22;18248;51.522;7.020;2022-09-14T08:14:03;16.90;99.90
31639;DHT22;18248;51.522;7.020;2022-09-14T08:17:02;16.90;99.90
31639;DHT22;18248;51.522;7.020;2022-09-14T08:20:01;17.00;99.90
31639;DHT22;18248;51.522;7.020;2022-09-14T08:22:59;17.00;99.90
31639;DHT22;18248;51.522;7.020;2022-09-14T08:26:05;17.00;99.90
31639;DHT22;18248;51.522;7.020;2022-09-14T08:29:04;17.10;99.90
31639;DHT22;18248;51.522;7.020;2022-09-14T08:32:03;17.10;99.90
31639;DHT22;18248;51.522;7.020;2022-09-14T08:35:02;17.20;99.90
31639;DHT22;18248;51.522;7.020;2022-09-14T08:38:00;17.20;99.90
31639;DHT22;18248;51.522;7.020;2022-09-14T08:41:09;17.30;99.90
31639;DHT22;18248;51.522;7.020;2022-09-14T08:44:30;17.30;99.90
31639;DHT22;18248;51.522;7.020;2022-09-14T08:47:33;17.30;99.90
31639;DHT22;18248;51.522;7.020;2022-09-14T08:50:36;17.30;99.90
31639;DHT22;18248;51.522;7.020;2022-09-14T08:53:38;17.20;99.90
31639;DHT22;18248;51.522;7.020;2022-09-14T08:56:40;17.20;99.90
31639;DHT22;18248;51.522;7.020;2022-09-14T09:00:02;17.20;99.90
31639;DHT22;18248;51.522;7.020;2022-09-14T09:09:46;16.90;99.90
31639;DHT22;18248;51.522;7.020;2022-09-14T09:12:49;17.00;99.90
31639;DHT22;18248;51.522;7.020;2022-09-14T09:15:54;17.00;99.90
31639;DHT22;18248;51.522;7.020;2022-09-14T09:19:04;17.10;99.90
31639;DHT22;18248;51.522;7.020;2022-09-14T09:22:05;17.10;99.90
31639;DHT22;18248;51.522;7.020;2022-09-14T09:25:22;17.20;99.90
31639;DHT22;18248;51.522;7.020;2022-09-14T09:28:23;17.20;99.90
31639;DHT22;18248;51.522;7.020;2022-09-14T09:34:33;17.20;99.90
31639;DHT22;18248;51.522;7.020;2022-09-14T09:37:37;17.20;99.90
31639;DHT22;18248;51.522;7.020;2022-09-14T09:40:40;17.20;99.90
31639;DHT22;18248;51.522;7.020;2022-09-14T09:44:00;17.30;99.90
31639;DHT22;18248;51.522;7.020;2022-09-14T09:47:00;17.20;99.90
31639;DHT22;18248;51.522;7.020;2022-09-14T09:50:01;17.20;99.90
31639;DHT22;18248;51.522;7.020;2022-09-14T09:53:00;17.20;99.90
31639;DHT22;18248;51.522;7.020;2022-09-14T09:55:59;17.20;99.90
31639;DHT22;18248;51.522;7.020;2022-09-14T09:58:58;17.20;99.90
31639;DHT22;18248;51.522;7.020;2022-09-14T10:05:23;17.20;99.90
31639;DHT22;18248;51.522;7.020;2022-09-14T10:08:22;17.20;99.90
31639;DHT22;18248;51.522;7.020;2022-09-14T10:11:33;17.20;99.90
31639;DHT22;18248;51.522;7.020;2022-09-14T10:14:35;17.20;99.90
31639;DHT22;18248;51.522;7.020;2022-09-14T10:17:34;17.10;99.90
31639;DHT22;18248;51.522;7.020;2022-09-14T10:20:35;17.20;99.90
31639;DHT22;18248;51.522;7.020;2022-09-14T10:23:38;17.20;99.90
31639;DHT22;18248;51.522;7.020;2022-09-14T10:26:37;17.30;99.90
31639;DHT22;18248;51.522;7.020;2022-09-14T10:29:43;17.30;99.90
31639;DHT22;18248;51.522;7.020;2022-09-14T10:33:07;17.30;99.90
31639;DHT22;18248;51.522;7.020;2022-09-14T10:39:40;17.40;99.90
31639;DHT22;18248;51.522;7.020;2022-09-14T10:43:07;17.40;99.90
31639;DHT22;18248;51.522;7.020;2022-09-14T10:46:11;17.30;99.90
31639;DHT22;18248;51.522;7.020;2022-09-14T10:56:12;17.40;99.90
31639;DHT22;18248;51.522;7.020;2022-09-14T11:03:08;17.40;99.90
31639;DHT22;18248;51.522;7.020;2022-09-14T11:06:19;17.40;99.90
31639;DHT22;18248;51.522;7.020;2022-09-14T11:09:44;17.30;99.90
31639;DHT22;18248;51.522;7.020;2022-09-14T11:12:52;17.30;99.90
31639;DHT22;18248;51.522;7.020;2022-09-14T11:16:23;17.30;99.90
31639;DHT22;18248;51.522;7.020;2022-09-14T11:26:11;17.30;99.90
31639;DHT22;18248;51.522;7.020;2022-09-14T11:29:29;17.20;99.90
31639;DHT22;18248;51.522;7.020;2022-09-14T11:35:40;17.20;99.90
31639;DHT22;18248;51.522;7.020;2022-09-14T11:38:59;17.20;99.90
31639;DHT22;18248;51.522;7.020;2022-09-14T11:42:02;17.10;99.90
31639;DHT22;18248;51.522;7.020;2022-09-14T11:45:12;17.00;99.90
31639;DHT22;18248;51.522;7.020;2022-09-14T11:48:30;17.10;99.90
31639;DHT22;18248;51.522;7.020;2022-09-14T11:55:10;17.10;99.90
31639;DHT22;18248;51.522;7.020;2022-09-14T11:58:20;17.10;99.90
31639;DHT22;18248;51.522;7.020;2022-09-14T12:01:27;17.00;99.90
31639;DHT22;18248;51.522;7.020;2022-09-14T12:04:26;17.00;99.90
31639;DHT22;18248;51.522;7.020;2022-09-14T12:11:29;17.00;99.90
31639;DHT22;18248;51.522;7.020;2022-09-14T12:17:33;16.90;99.90
31639;DHT22;18248;51.522;7.020;2022-09-14T12:23:42;17.00;99.90
31639;DHT22;18248;51.522;7.020;2022-09-14T12:26:41;17.00;99.90
31639;DHT22;18248;51.522;7.020;2022-09-14T12:29:40;17.00;99.90
31639;DHT22;18248;51.522;7.020;2022-09-14T12:32:57;17.00;99.90
31639;DHT22;18248;51.522;7.020;2022-09-14T12:36:09;16.90;99.90
31639;DHT22;18248;51.522;7.020;2022-09-14T12:42:28;16.90;99.90
31639;DHT22;18248;51.522;7.020;2022-09-14T12:45:58;16.90;99.90
31639;DHT22;18248;51.522;7.020;2022-09-14T12:49:00;17.00;99.90
31639;DHT22;18248;51.522;7.020;2022-09-14T12:52:08;17.00;99.90
31639;DHT22;18248;51.522;7.020;2022-09-14T12:58:25;17.10;99.90
31639;DHT22;18248;51.522;7.020;2022-09-14T13:04:51;17.20;99.90
31639;DHT22;18248;51.522;7.020;2022-09-14T13:07:51;17.20;99.90
31639;DHT22;18248;51.522;7.020;2022-09-14T13:10:51;17.20;99.90
31639;DHT22;18248;51.522;7.020;2022-09-14T13:13:50;17.10;99.90
31639;DHT22;18248;51.522;7.020;2022-09-14T13:16:49;17.10;99.90
31639;DHT22;18248;51.522;7.020;2022-09-14T13:20:14;17.10;99.90
31639;DHT22;18248;51.522;7.020;2022-09-14T13:23:39;17.10;99.90
31639;DHT22;18248;51.522;7.020;2022-09-14T13:26:38;17.20;99.90
31639;DHT22;18248;51.522;7.020;2022-09-14T13:29:37;17.20;99.90
31639;DHT22;18248;51.522;7.020;2022-09-14T13:32:41;17.20;99.90
31639;DHT22;18248;51.522;7.020;2022-09-14T13:35:52;17.30;99.90
31639;DHT22;18248;51.522;7.020;2022-09-14T13:38:53;17.30;99.90
31639;DHT22;18248;51.522;7.020;2022-09-14T13:41:54;17.30;99.90
31639;DHT22;18248;51.522;7.020;2022-09-14T13:44:53;17.30;99.90
31639;DHT22;18248;51.522;7.020;2022-09-14T13:47:52;17.30;99.90
31639;DHT22;18248;51.522;7.020;2022-09-14T13:50:51;17.40;99.90
31639;DHT22;18248;51.522;7.020;2022-09-14T13:53:55;17.40;99.90
31639;DHT22;18248;51.522;7.020;2022-09-14T13:57:30;17.40;99.90
31639;DHT22;18248;51.522;7.020;2022-09-14T14:00:30;17.30;99.90
31639;DHT22;18248;51.522;7.020;2022-09-14T14:03:34;17.30;99.90
31639;DHT22;18248;51.522;7.020;2022-09-14T14:06:34;17.30;99.90
31639;DHT22;18248;51.522;7.020;2022-09-14T14:09:43;17.30;99.90
31639;DHT22;18248;51.522;7.020;2022-09-14T14:12:43;17.40;99.90
31639;DHT22;18248;51.522;7.020;2022-09-14T14:15:42;17.50;99.90
31639;DHT22;18248;51.522;7.020;2022-09-14T14:18:47;17.50;99.90
31639;DHT22;18248;51.522;7.020;2022-09-14T14:21:46;17.60;99.90
31639;DHT22;18248;51.522;7.020;2022-09-14T14:24:47;17.50;99.90
31639;DHT22;18248;51.522;7.020;2022-09-14T14:27:47;17.50;99.90
31639;DHT22;18248;51.522;7.020;2022-09-14T14:30:45;17.50;99.90
31639;DHT22;18248;51.522;7.020;2022-09-14T14:33:49;17.50;99.90
31639;DHT22;18248;51.522;7.020;2022-09-14T14:36:48;17.60;99.90
31639;DHT22;18248;51.522;7.020;2022-09-14T14:39:47;17.60;99.90
31639;DHT22;18248;51.522;7.020;2022-09-14T14:42:46;17.60;99.90
31639;DHT22;18248;51.522;7.020;2022-09-14T14:45:47;17.50;99.90
31639;DHT22;18248;51.522;7.020;2022-09-14T14:48:47;17.60;99.90
31639;DHT22;18248;51.522;7.020;2022-09-14T14:51:46;17.50;99.90
31639;DHT22;18248;51.522;7.020;2022-09-14T14:54:45;17.50;99.90
31639;DHT22;18248;51.522;7.020;2022-09-14T14:57:43;17.50;99.90
31639;DHT22;18248;51.522;7.020;2022-09-14T15:00:42;17.60;99.90
31639;DHT22;18248;51.522;7.020;2022-09-14T15:03:41;17.60;99.90
31639;DHT22;18248;51.522;7.020;2022-09-14T15:06:39;17.60;99.90
31639;DHT22;18248;51.522;7.020;2022-09-14T15:09:38;17.60;99.90
31639;DHT22;18248;51.522;7.020;2022-09-14T15:12:36;17.70;99.90
31639;DHT22;18248;51.522;7.020;2022-09-14T15:15:35;17.70;99.90
31639;DHT22;18248;51.522;7.020;2022-09-14T15:18:33;17.70;99.90
31639;DHT22;18248;51.522;7.020;2022-09-14T15:21:32;17.60;99.90
31639;DHT22;18248;51.522;7.020;2022-09-14T15:24:31;17.70;99.90
31639;DHT22;18248;51.522;7.020;2022-09-14T15:27:29;17.70;99.90
31639;DHT22;18248;51.522;7.020;2022-09-14T15:30:28;17.70;99.90
31639;DHT22;18248;51.522;7.020;2022-09-14T15:33:26;17.70;99.90
31639;DHT22;18248;51.522;7.020;2022-09-14T15:36:42;17.70;99.90
31639;DHT22;18248;51.522;7.020;2022-09-14T15:39:45;17.70;99.90
31639;DHT22;18248;51.522;7.020;2022-09-14T15:42:44;17.70;99.90
31639;DHT22;18248;51.522;7.020;2022-09-14T15:45:43;17.70;99.90
31639;DHT22;18248;51.522;7.020;2022-09-14T15:48:41;17.60;99.90
31639;DHT22;18248;51.522;7.020;2022-09-14T15:51:41;17.60;99.90
31639;DHT22;18248;51.522;7.020;2022-09-14T15:54:40;17.60;99.90
31639;DHT22;18248;51.522;7.020;2022-09-14T15:57:39;17.60;99.90
31639;DHT22;18248;51.522;7.020;2022-09-14T16:00:41;17.50;99.90
31639;DHT22;18248;51.522;7.020;2022-09-14T16:03:41;17.50;99.90
31639;DHT22;18248;51.522;7.020;2022-09-14T16:06:40;17.50;99.90
31639;DHT22;18248;51.522;7.020;2022-09-14T16:09:39;17.50;99.90
31639;DHT22;18248;51.522;7.020;2022-09-14T16:12:38;17.60;99.90
31639;DHT22;18248;51.522;7.020;2022-09-14T16:15:37;17.60;99.90
31639;DHT22;18248;51.522;7.020;2022-09-14T16:18:36;17.50;99.90
31639;DHT22;18248;51.522;7.020;2022-09-14T16:21:35;17.60;99.90
31639;DHT22;18248;51.522;7.020;2022-09-14T16:24:34;17.60;99.90
31639;DHT22;18248;51.522;7.020;2022-09-14T16:27:32;17.60;99.90
31639;DHT22;18248;51.522;7.020;2022-09-14T16:30:32;17.60;99.90
31639;DHT22;18248;51.522;7.020;2022-09-14T16:33:35;17.60;99.90
31639;DHT22;18248;51.522;7.020;2022-09-14T16:36:37;17.60;99.90
31639;DHT22;18248;51.522;7.020;2022-09-14T16:39:35;17.60;99.90
31639;DHT22;18248;51.522;7.020;2022-09-14T16:42:34;17.50;99.90
31639;DHT22;18248;51.522;7.020;2022-09-14T16:45:32;17.40;99.90
31639;DHT22;18248;51.522;7.020;2022-09-14T16:48:32;17.40;99.90
31639;DHT22;18248;51.522;7.020;2022-09-14T16:51:32;17.30;99.90
31639;DHT22;18248;51.522;7.020;2022-09-14T16:54:30;17.30;99.90
31639;DHT22;18248;51.522;7.020;2022-09-14T16:57:29;17.30;99.90
31639;DHT22;18248;51.522;7.020;2022-09-14T17:00:28;17.30;99.90
31639;DHT22;18248;51.522;7.020;2022-09-14T17:03:27;17.30;99.90
31639;DHT22;18248;51.522;7.020;2022-09-14T17:06:28;17.30;99.90
31639;DHT22;18248;51.522;7.020;2022-09-14T17:09:28;17.30;99.90
31639;DHT22;18248;51.522;7.020;2022-09-14T17:12:27;17.30;99.90
31639;DHT22;18248;51.522;7.020;2022-09-14T17:15:25;17.30;99.90
31639;DHT22;18248;51.522;7.020;2022-09-14T17:18:24;17.20;99.90
31639;DHT22;18248;51.522;7.020;2022-09-14T17:21:25;17.20;99.90
31639;DHT22;18248;51.522;7.020;2022-09-14T17:24:24;17.20;99.90
31639;DHT22;18248;51.522;7.020;2022-09-14T17:27:26;17.10;99.90
31639;DHT22;18248;51.522;7.020;2022-09-14T17:30:24;17.10;99.90
31639;DHT22;18248;51.522;7.020;2022-09-14T17:33:23;17.10;99.90
31639;DHT22;18248;51.522;7.020;2022-09-14T17:36:22;17.00;99.90
31639;DHT22;18248;51.522;7.020;2022-09-14T17:39:22;17.00;99.90
31639;DHT22;18248;51.522;7.020;2022-09-14T17:42:20;17.00;99.90
31639;DHT22;18248;51.522;7.020;2022-09-14T17:45:19;17.00;99.90
31639;DHT22;18248;51.522;7.020;2022-09-14T17:48:17;17.00;99.90
31639;DHT22;18248;51.522;7.020;2022-09-14T17:51:18;17.00;99.90
31639;DHT22;18248;51.522;7.020;2022-09-14T17:54:18;16.90;99.90
31639;DHT22;18248;51.522;7.020;2022-09-14T17:57:17;16.90;99.90
31639;DHT22;18248;51.522;7.020;2022-09-14T18:00:16;16.80;99.90
31639;DHT22;18248;51.522;7.020;2022-09-14T18:03:14;16.80;99.90
31639;DHT22;18248;51.522;7.020;2022-09-14T18:06:13;16.90;99.90
31639;DHT22;18248;51.522;7.020;2022-09-14T18:09:20;16.80;99.90
31639;DHT22;18248;51.522;7.020;2022-09-14T18:12:19;16.80;99.90
31639;DHT22;18248;51.522;7.020;2022-09-14T18:15:18;16.70;99.90
31639;DHT22;18248;51.522;7.020;2022-09-14T18:18:16;16.70;99.90
31639;DHT22;18248;51.522;7.020;2022-09-14T18:21:15;16.70;99.90
31639;DHT22;18248;51.522;7.020;2022-09-14T18:24:16;16.60;99.90
31639;DHT22;18248;51.522;7.020;2022-09-14T18:27:16;16.60;99.90
31639;DHT22;18248;51.522;7.020;2022-09-14T18:30:15;16.60;99.90
31639;DHT22;18248;51.522;7.020;2022-09-14T18:33:14;16.50;99.90
31639;DHT22;18248;51.522;7.020;2022-09-14T18:36:13;16.50;99.90
31639;DHT22;18248;51.522;7.020;2022-09-14T18:39:13;16.50;99.90
31639;DHT22;18248;51.522;7.020;2022-09-14T18:42:11;16.40;99.90
31639;DHT22;18248;51.522;7.020;2022-09-14T18:45:11;16.40;99.90
31639;DHT22;18248;51.522;7.020;2022-09-14T18:48:09;16.50;99.90
31639;DHT22;18248;51.522;7.020;2022-09-14T18:51:09;16.50;99.90
31639;DHT22;18248;51.522;7.020;2022-09-14T18:54:10;16.40;99.90
31639;DHT22;18248;51.522;7.020;2022-09-14T18:57:09;16.40;99.90
31639;DHT22;18248;51.522;7.020;2022-09-14T19:00:08;16.40;99.90
31639;DHT22;18248;51.522;7.020;2022-09-14T19:03:08;16.40;99.90
31639;DHT22;18248;51.522;7.020;2022-09-14T19:06:10;16.30;99.90
31639;DHT22;18248;51.522;7.020;2022-09-14T19:09:09;16.30;99.90
31639;DHT22;18248;51.522;7.020;2022-09-14T19:12:07;16.30;99.90
31639;DHT22;18248;51.522;7.020;2022-09-14T19:15:09;16.30;99.90
31639;DHT22;18248;51.522;7.020;2022-09-14T19:18:08;16.30;99.90
31639;DHT22;18248;51.522;7.020;2022-09-14T19:21:10;16.20;99.90
31639;DHT22;18248;51.522;7.020;2022-09-14T19:24:14;16.20;99.90
31639;DHT22;18248;51.522;7.020;2022-09-14T19:27:13;16.20;99.90
31639;DHT22;18248;51.522;7.020;2022-09-14T19:30:12;16.10;99.90
31639;DHT22;18248;51.522;7.020;2022-09-14T19:33:10;16.10;99.90
31639;DHT22;18248;51.522;7.020;2022-09-14T19:36:14;16.00;99.90
31639;DHT22;18248;51.522;7.020;2022-09-14T19:39:13;16.00;99.90
31639;DHT22;18248;51.522;7.020;2022-09-14T19:42:12;15.90;99.90
31639;DHT22;18248;51.522;7.020;2022-09-14T19:45:11;15.90;99.90
31639;DHT22;18248;51.522;7.020;2022-09-14T19:48:12;15.80;99.90
31639;DHT22;18248;51.522;7.020;2022-09-14T19:51:13;15.90;99.90
31639;DHT22;18248;51.522;7.020;2022-09-14T19:54:13;15.80;99.90
31639;DHT22;18248;51.522;7.020;2022-09-14T19:57:11;15.80;99.90
31639;DHT22;18248;51.522;7.020;2022-09-14T20:00:10;15.80;99.90
31639;DHT22;18248;51.522;7.020;2022-09-14T20:03:10;15.80;99.90
31639;DHT22;18248;51.522;7.020;2022-09-14T20:06:21;15.80;99.90
31639;DHT22;18248;51.522;7.020;2022-09-14T20:09:22;15.80;99.90
31639;DHT22;18248;51.522;7.020;2022-09-14T20:12:21;15.70;99.90
31639;DHT22;18248;51.522;7.020;2022-09-14T20:15:19;15.70;99.90
31639;DHT22;18248;51.522;7.020;2022-09-14T20:18:18;15.70;99.90
31639;DHT22;18248;51.522;7.020;2022-09-14T20:21:20;15.60;99.90
31639;DHT22;18248;51.522;7.020;2022-09-14T20:24:21;15.60;99.90